Decoded Metar for DTTG (GABES in TUNISIA) (IATA:GAE) | Meteo·Mobile Aviation Weather
aviador You're here:

DTTG Decoded Metar

GABES in TUNISIA
Report Time2018-10-22 13:00:00
UTC Time2018-10-22 14:03:40
Flight Rules vfr VFR
Wind280° at 12 kt
W.Decomp.*RWY 24: 9.3 kt HW 7.6 kt RCW
W.Rank280° ranks 14
Current wind is above 280° avg. (6.7)
Visibility9999 m
Phenomena:N/A
Clouds:Few 030 Hf
Expected CloudBase > 6,800 ft AGL from Temp-Dew spread
CeilingNone
Temp29°C (ISA +14)
Dew Point12°C (35% RH)
Heat Index28.2°C
AAT25.3°C
QNH1013 hPa
Density Alt1,818 ft
Elevation16 ft
Report Wrong Elevation
Raw Report
DTTG 221300Z 28012KT 240V320 9999 FEW030 29/12 Q1013 NOSIG=

Extra information for DTTG:More info

Metar Taf Metar & Taf Last 4 Metars F.Rules Stats Wind Profile Meteogram Temp Stats Airport Information Weather charts Add Link Nearby VenuesMetar ALERT Operation Metar Decoded Social comments